Time;durP1;ratioP1;P1;durP2;ratioP2;P2;SDS_P1;SDS_P2;PMS_P1;PMS_P2;Temp;Humidity;BMP_temperature;BMP_pressure;BME280_temperature;BME280_humidity;BME280_pressure;Samples;Min_cycle;Max_cycle;Signal;HPM_P1;HPM_P2
2022/08/17 00:00:16;;;;;;;20.38;18.42;;;;;;;19.33;95.66;100945.53;5011290;28;20191;-44
2022/08/17 00:03:06;;;;;;;20.17;18.38;;;;;;;19.23;96.48;100949.88;5011694;28;20172;-48
2022/08/17 00:05:57;;;;;;;22.42;20.33;;;;;;;19.26;96.48;100941.53;5011306;28;20185;-46
2022/08/17 00:08:27;;;;;;;23.92;21.48;;;;;;;19.28;96.31;100949.53;4997517;28;20291;-46
2022/08/17 00:10:53;;;;;;;21.65;19.60;;;;;;;19.21;95.95;100945.53;5011127;28;20256;-48
2022/08/17 00:13:29;;;;;;;23.17;20.92;;;;;;;19.06;95.97;100950.22;5011375;28;20655;-47
2022/08/17 00:16:02;;;;;;;19.08;17.27;;;;;;;19.13;96.04;100959.66;5011300;28;20160;-45
2022/08/17 00:18:30;;;;;;;21.80;19.50;;;;;;;19.18;95.72;100945.78;5011719;28;20644;-46
2022/08/17 00:20:58;;;;;;;20.52;18.73;;;;;;;19.14;96.16;100958.69;5009874;28;20185;-48
2022/08/17 00:23:25;;;;;;;24.52;22.20;;;;;;;19.14;96.33;100965.00;5010905;28;20741;-45
2022/08/17 00:25:51;;;;;;;22.15;19.88;;;;;;;19.12;96.26;100955.22;5011285;28;20172;-49
2022/08/17 00:28:18;;;;;;;21.05;18.95;;;;;;;19.06;96.49;100961.94;5011360;28;20157;-47
2022/08/17 00:30:46;;;;;;;30.90;27.75;;;;;;;18.85;96.41;100958.09;5011097;28;20679;-47
2022/08/17 00:33:15;;;;;;;25.60;23.20;;;;;;;18.86;97.77;100957.94;5010997;28;20197;-45
2022/08/17 00:35:43;;;;;;;21.23;19.27;;;;;;;18.90;97.84;100958.63;5010877;28;20166;-47
2022/08/17 00:38:09;;;;;;;26.23;23.52;;;;;;;18.85;97.77;100960.78;5011103;28;20172;-46
2022/08/17 00:40:48;;;;;;;22.67;20.45;;;;;;;18.85;97.35;100961.66;5010833;28;20649;-46
2022/08/17 00:43:25;;;;;;;24.95;22.45;;;;;;;18.67;96.93;100960.19;5011065;28;20200;-47
2022/08/17 00:45:52;;;;;;;29.45;26.15;;;;;;;18.49;97.81;100963.22;4993784;28;20694;-45
2022/08/17 00:48:18;;;;;;;21.45;19.35;;;;;;;18.56;98.03;100969.09;5011105;28;20169;-45
2022/08/17 00:51:01;;;;;;;20.50;18.50;;;;;;;18.62;97.90;100960.50;5010684;28;20227;-45
2022/08/17 00:53:30;;;;;;;21.65;19.60;;;;;;;18.66;97.32;100969.31;5010963;28;20465;-44
2022/08/17 00:56:01;;;;;;;19.75;18.05;;;;;;;18.72;97.17;100969.75;5010925;28;20311;-42
2022/08/17 00:58:27;;;;;;;20.77;18.88;;;;;;;18.70;96.79;100960.84;5010576;28;20518;-44
2022/08/17 01:00:53;;;;;;;27.38;24.73;;;;;;;18.49;96.36;100960.50;5010701;28;20175;-41
2022/08/17 01:03:26;;;;;;;27.08;24.42;;;;;;;18.53;97.06;100964.75;5010221;28;20207;-44
2022/08/17 01:05:55;;;;;;;24.33;21.90;;;;;;;18.56;97.20;100966.38;5010891;28;20220;-42
2022/08/17 01:08:25;;;;;;;28.90;25.88;;;;;;;18.49;97.23;100963.22;5010481;28;20212;-44
2022/08/17 01:10:56;;;;;;;26.38;23.98;;;;;;;18.49;97.69;100963.22;5010841;28;20173;-43
2022/08/17 01:13:24;;;;;;;25.90;23.52;;;;;;;18.45;98.22;100967.09;5010164;28;20598;-43
2022/08/17 01:15:56;;;;;;;27.98;25.27;;;;;;;18.33;98.53;100963.41;5010743;28;20581;-42
2022/08/17 01:18:22;;;;;;;25.00;22.65;;;;;;;18.40;98.44;100963.84;5010659;28;20172;-43
2022/08/17 01:20:50;;;;;;;26.13;23.60;;;;;;;18.42;98.24;100974.63;5010493;28;20180;-42
2022/08/17 01:23:19;;;;;;;24.48;22.15;;;;;;;18.40;98.04;100977.41;5010646;28;20215;-42
2022/08/17 01:25:48;;;;;;;26.50;23.95;;;;;;;18.37;98.25;100974.06;5010547;28;20197;-43
2022/08/17 01:28:14;;;;;;;25.02;22.67;;;;;;;18.34;98.78;100975.13;5027969;28;20627;-43
2022/08/17 01:30:41;;;;;;;22.73;20.55;;;;;;;18.35;98.79;100976.88;5030453;28;20171;-43
2022/08/17 01:33:10;;;;;;;21.52;19.45;;;;;;;18.27;98.89;100971.97;5029907;28;20565;-42
2022/08/17 01:35:36;;;;;;;22.92;20.63;;;;;;;18.24;98.61;100974.03;5030193;28;20639;-45
2022/08/17 01:38:03;;;;;;;20.50;18.65;;;;;;;18.20;98.71;100973.38;5030013;28;20251;-44
2022/08/17 01:40:37;;;;;;;19.70;17.92;;;;;;;18.20;98.41;100969.78;5030265;28;20715;-44
2022/08/17 01:43:09;;;;;;;28.60;25.63;;;;;;;17.93;98.25;100984.25;5029766;28;20246;-43
2022/08/17 01:45:42;;;;;;;28.98;26.08;;;;;;;17.88;99.17;100978.22;5028808;28;20545;-42
2022/08/17 01:48:08;;;;;;;21.95;19.98;;;;;;;17.98;99.45;100973.09;5032655;28;20703;-44
2022/08/17 01:50:36;;;;;;;25.92;23.48;;;;;;;17.96;99.29;100980.44;5033430;28;20191;-43
2022/08/17 01:53:06;;;;;;;24.90;22.67;;;;;;;18.00;99.29;100979.28;5033676;28;20257;-43
2022/08/17 01:55:38;;;;;;;27.67;25.05;;;;;;;17.89;98.87;100980.84;5033345;28;20165;-43
2022/08/17 01:58:08;;;;;;;27.00;24.40;;;;;;;17.82;99.43;100968.69;5027071;28;20196;-44
2022/08/17 02:00:36;;;;;;;21.33;19.40;;;;;;;17.87;99.38;100962.94;5032968;28;20516;-43
2022/08/17 02:03:02;;;;;;;24.10;21.90;;;;;;;17.83;99.11;100974.97;5033353;28;20453;-43
2022/08/17 02:05:27;;;;;;;20.10;18.33;;;;;;;17.86;99.14;100980.16;5033221;28;20192;-44
2022/08/17 02:07:53;;;;;;;27.33;24.63;;;;;;;17.76;99.03;100977.19;5033306;28;20160;-43
2022/08/17 02:10:18;;;;;;;22.92;20.63;;;;;;;17.80;99.32;100978.72;5033340;28;20191;-43
2022/08/17 02:12:43;;;;;;;23.73;21.52;;;;;;;17.80;99.24;100980.53;5032976;28;20176;-43
2022/08/17 02:15:11;;;;;;;25.25;23.00;;;;;;;17.65;98.88;100979.72;5033308;28;20519;-43
2022/08/17 02:17:39;;;;;;;25.45;23.05;;;;;;;17.54;98.78;100979.56;5033032;28;20160;-43
2022/08/17 02:20:06;;;;;;;21.60;19.50;;;;;;;17.65;99.19;100974.31;5032986;28;20202;-41
2022/08/17 02:22:32;;;;;;;24.73;22.25;;;;;;;17.56;99.01;100983.00;5032949;28;20622;-44
2022/08/17 02:24:59;;;;;;;21.45;19.40;;;;;;;17.56;98.87;100975.78;5032977;28;20203;-43
2022/08/17 02:27:25;;;;;;;25.85;23.25;;;;;;;17.51;99.06;100975.19;5032836;28;20538;-43
2022/08/17 02:29:51;;;;;;;27.30;24.50;;;;;;;17.48;99.09;100976.28;5032402;28;20252;-41
2022/08/17 02:32:18;;;;;;;27.20;24.63;;;;;;;17.46;98.88;100972.78;5032910;28;20630;-44
2022/08/17 02:34:44;;;;;;;28.80;25.90;;;;;;;17.35;99.41;100978.03;5032624;28;20270;-45
2022/08/17 02:37:10;;;;;;;24.42;22.23;;;;;;;17.39;99.82;100982.28;5032905;28;20255;-44
2022/08/17 02:39:37;;;;;;;26.33;23.70;;;;;;;17.23;99.78;100990.53;5032355;28;20171;-42
2022/08/17 02:42:04;;;;;;;21.83;19.77;;;;;;;17.36;100.00;100982.50;5032532;28;20686;-44
2022/08/17 02:44:29;;;;;;;27.00;24.45;;;;;;;17.29;100.00;100991.97;5032524;28;20223;-43
2022/08/17 02:46:55;;;;;;;24.63;22.35;;;;;;;17.33;100.00;100996.22;5032393;28;20168;-43
2022/08/17 02:49:20;;;;;;;24.98;22.65;;;;;;;17.34;99.95;100997.06;5032515;28;20172;-44
2022/08/17 02:51:48;;;;;;;24.52;22.30;;;;;;;17.33;99.79;100993.50;5030955;28;20191;-45
2022/08/17 02:54:14;;;;;;;25.77;23.35;;;;;;;17.21;99.07;100997.88;5032462;28;20200;-45
2022/08/17 02:56:39;;;;;;;25.25;22.80;;;;;;;17.06;99.02;100982.59;5032451;28;20243;-43
2022/08/17 02:59:05;;;;;;;25.52;23.23;;;;;;;17.03;99.56;100993.59;5032043;28;20164;-43
2022/08/17 03:01:30;;;;;;;26.23;23.83;;;;;;;16.95;100.00;100985.97;5032221;28;20270;-44
2022/08/17 03:03:56;;;;;;;25.45;23.10;;;;;;;17.02;100.00;100990.03;5032036;28;20235;-44
2022/08/17 03:06:22;;;;;;;24.45;22.00;;;;;;;17.04;100.00;100995.38;5032423;28;20195;-45
2022/08/17 03:08:48;;;;;;;26.55;24.00;;;;;;;17.03;99.87;100986.38;5030702;28;20172;-42
2022/08/17 03:11:13;;;;;;;23.77;21.63;;;;;;;17.04;99.81;100987.25;5032199;28;20163;-44
2022/08/17 03:13:39;;;;;;;24.60;22.23;;;;;;;17.00;99.90;100991.97;5032085;28;20206;-45
2022/08/17 03:16:05;;;;;;;26.73;24.05;;;;;;;16.98;99.80;100993.03;5031523;28;20262;-43
2022/08/17 03:18:30;;;;;;;26.02;23.63;;;;;;;16.97;100.00;100988.59;5032167;28;20157;-43
2022/08/17 03:21:00;;;;;;;27.88;25.20;;;;;;;16.97;100.00;100989.47;5014000;28;20176;-43
2022/08/17 03:23:27;;;;;;;23.50;21.40;;;;;;;17.05;100.00;100987.16;5031941;28;20200;-44
2022/08/17 03:25:54;;;;;;;21.00;19.20;;;;;;;17.08;100.00;100986.94;5031510;28;20184;-43
2022/08/17 03:28:20;;;;;;;25.85;23.33;;;;;;;17.08;99.74;100986.09;5013582;28;20226;-43
2022/08/17 03:30:46;;;;;;;25.95;23.45;;;;;;;17.01;99.60;100993.72;5011798;28;20176;-43
2022/08/17 03:33:11;;;;;;;26.25;23.95;;;;;;;16.96;99.55;100992.25;5011843;28;20244;-45
2022/08/17 03:35:39;;;;;;;26.98;24.48;;;;;;;16.91;99.98;100997.97;5011954;28;20176;-42
2022/08/17 03:38:06;;;;;;;22.05;20.15;;;;;;;16.97;100.00;101000.28;5011852;28;20257;-44
2022/08/17 03:40:32;;;;;;;21.98;19.88;;;;;;;17.00;100.00;100999.22;5011968;28;20291;-45
2022/08/17 03:43:03;;;;;;;28.58;25.48;;;;;;;16.89;100.00;100995.34;5010107;28;20291;-45
2022/08/17 03:56:43;;;;;;;43.70;29.80;;;;;;;16.78;100.00;100996.94;5010765;28;20207;-44
2022/08/17 03:59:16;;;;;;;49.33;31.75;;;;;;;16.73;100.00;101007.19;5015204;28;20671;-44
2022/08/17 04:01:46;;;;;;;38.72;27.23;;;;;;;16.78;100.00;100997.81;5022540;28;20175;-43
2022/08/17 04:04:12;;;;;;;50.80;33.80;;;;;;;16.81;100.00;100999.47;5030821;28;20224;-43
2022/08/17 04:06:40;;;;;;;51.67;34.47;;;;;;;16.86;100.00;101008.22;5028015;28;20203;-43
2022/08/17 04:09:06;;;;;;;60.33;39.85;;;;;;;16.86;100.00;101013.63;5027888;28;20554;-44
2022/08/17 04:11:33;;;;;;;66.63;41.22;;;;;;;16.89;100.00;101022.41;5029628;28;20199;-44
2022/08/17 04:14:00;;;;;;;61.88;43.35;;;;;;;16.92;100.00;101012.34;5031062;28;20614;-44
2022/08/17 04:16:26;;;;;;;68.60;46.78;;;;;;;16.98;100.00;101015.56;5031111;28;20239;-44
2022/08/17 04:18:52;;;;;;;67.43;48.15;;;;;;;17.06;100.00;101015.94;5030543;28;20259;-44
2022/08/17 04:21:19;;;;;;;57.05;43.08;;;;;;;17.14;100.00;101020.00;5030943;28;20204;-46
2022/08/17 04:23:45;;;;;;;56.88;42.40;;;;;;;17.13;100.00;101021.84;5030639;28;20693;-44
2022/08/17 04:26:11;;;;;;;58.15;43.97;;;;;;;17.06;100.00;101020.50;5030549;28;20169;-43
2022/08/17 04:28:36;;;;;;;54.97;41.55;;;;;;;17.08;100.00;101026.69;5030668;28;20171;-43
2022/08/17 04:31:03;;;;;;;66.78;45.25;;;;;;;16.98;100.00;101025.53;5030979;28;20474;-44
2022/08/17 04:33:29;;;;;;;65.20;45.65;;;;;;;17.04;100.00;101031.41;5030662;28;20679;-43
2022/08/17 04:36:00;;;;;;;61.80;43.55;;;;;;;17.07;100.00;101024.94;5030518;28;20179;-43
2022/08/17 04:38:29;;;;;;;67.93;41.10;;;;;;;17.10;100.00;101030.19;5030496;28;20164;-44
2022/08/17 04:43:42;;;;;;;59.75;42.55;;;;;;;17.11;100.00;101026.50;5029916;28;20208;-43
2022/08/17 04:46:11;;;;;;;58.47;44.88;;;;;;;17.13;100.00;101029.97;5030561;28;20172;-42
2022/08/17 04:48:41;;;;;;;69.10;50.08;;;;;;;17.12;100.00;101032.78;5030305;28;20179;-44
2022/08/17 04:51:12;;;;;;;50.97;41.53;;;;;;;17.18;100.00;101019.72;5030824;28;20168;-44
2022/08/17 04:53:40;;;;;;;65.88;48.85;;;;;;;17.15;100.00;101019.06;5030635;28;20203;-42
2022/08/17 04:56:06;;;;;;;73.13;53.08;;;;;;;17.19;100.00;101032.31;5030809;28;20175;-45
2022/08/17 04:58:31;;;;;;;57.17;44.55;;;;;;;17.26;100.00;101028.22;5031061;28;20565;-46
2022/08/17 05:00:57;;;;;;;76.43;51.05;;;;;;;17.34;100.00;101029.56;5030951;28;20248;-45
2022/08/17 05:03:22;;;;;;;77.70;52.67;;;;;;;17.36;100.00;101033.97;5062951;28;20589;-46
2022/08/17 05:05:48;;;;;;;93.03;49.45;;;;;;;17.41;100.00;101036.38;5030668;28;20242;-45
2022/08/17 05:08:16;;;;;;;67.30;46.13;;;;;;;17.45;100.00;101036.06;5030985;28;20176;-44
2022/08/17 05:10:42;;;;;;;90.60;47.70;;;;;;;17.43;100.00;101031.72;5030822;28;20210;-48
2022/08/17 05:13:15;;;;;;;76.40;49.25;;;;;;;17.40;100.00;101040.03;5030571;28;20207;-45
2022/08/17 05:15:42;;;;;;;100.55;52.55;;;;;;;17.40;100.00;101049.00;5030864;28;20165;-45
2022/08/17 05:18:09;;;;;;;78.53;51.13;;;;;;;17.44;100.00;101057.84;5030553;28;20164;-46
2022/08/17 05:20:36;;;;;;;65.45;46.95;;;;;;;17.46;100.00;101058.59;5031078;28;20549;-46
2022/08/17 05:23:05;;;;;;;84.05;49.80;;;;;;;17.47;100.00;101052.22;5034311;28;20202;-45
2022/08/17 05:25:35;;;;;;;59.25;44.90;;;;;;;17.50;100.00;101052.91;5034705;28;20705;-49
2022/08/17 05:28:00;;;;;;;68.93;48.10;;;;;;;17.55;100.00;101049.88;5034451;28;20255;-46
2022/08/17 05:30:26;;;;;;;51.40;41.45;;;;;;;17.66;100.00;101050.06;5033133;28;20573;-45
2022/08/17 05:32:54;;;;;;;60.05;45.50;;;;;;;17.58;100.00;101044.28;5034436;28;20206;-46
2022/08/17 05:35:21;;;;;;;46.33;38.72;;;;;;;17.75;100.00;101045.03;5034684;28;20527;-49
2022/08/17 05:37:46;;;;;;;57.40;44.35;;;;;;;17.81;100.00;101045.50;5034327;28;20152;-47
2022/08/17 05:40:12;;;;;;;59.97;46.55;;;;;;;17.80;100.00;101041.06;5034002;28;20242;-46
2022/08/17 05:42:38;;;;;;;59.40;46.35;;;;;;;17.86;100.00;101042.50;5066029;28;20168;-47
2022/08/17 05:45:04;;;;;;;60.03;46.47;;;;;;;17.86;100.00;101029.84;5032686;28;20564;-44
2022/08/17 05:47:30;;;;;;;60.67;46.28;;;;;;;17.96;100.00;101026.53;5033865;28;20175;-47
2022/08/17 05:49:57;;;;;;;66.78;47.83;;;;;;;18.04;100.00;101035.03;5034052;28;20168;-47
2022/08/17 05:52:33;;;;;;;67.85;48.47;;;;;;;18.09;100.00;101044.59;5033823;28;20211;-46
2022/08/17 05:55:11;;;;;;;71.45;45.40;;;;;;;18.10;100.00;101048.16;5034011;28;20167;-46
2022/08/17 05:57:45;;;;;;;67.97;44.45;;;;;;;18.10;100.00;101032.78;5033712;28;20623;-46
2022/08/17 06:00:25;;;;;;;62.72;43.33;;;;;;;18.15;100.00;101035.19;5033802;28;20535;-46
2022/08/17 06:03:10;;;;;;;61.83;44.88;;;;;;;18.17;100.00;101048.63;5033373;28;20203;-46
2022/08/17 06:05:51;;;;;;;60.75;45.67;;;;;;;18.23;100.00;101043.66;5033679;28;20192;-47
2022/08/17 06:08:35;;;;;;;58.35;44.25;;;;;;;18.19;100.00;101046.69;5065395;28;20175;-47
2022/08/17 06:11:20;;;;;;;53.03;42.63;;;;;;;18.22;100.00;101055.50;5032446;28;20168;-45
2022/08/17 06:14:03;;;;;;;53.00;43.30;;;;;;;18.34;100.00;101053.78;5033469;28;20284;-45
2022/08/17 06:16:35;;;;;;;53.03;42.00;;;;;;;18.58;100.00;101053.97;5033670;28;20167;-49
2022/08/17 06:19:13;;;;;;;47.25;40.13;;;;;;;18.65;100.00;101060.75;5033448;28;20230;-47
2022/08/17 06:21:42;;;;;;;45.90;40.17;;;;;;;18.80;100.00;101058.81;5033234;28;20164;-49
2022/08/17 06:24:40;;;;;;;45.85;40.70;;;;;;;19.08;100.00;101067.78;5033356;28;20212;-44
2022/08/17 06:27:30;;;;;;;54.70;42.00;;;;;;;19.41;100.00;101052.75;5024919;28;20258;-47
2022/08/17 06:30:14;;;;;;;46.35;41.25;;;;;;;19.65;100.00;101070.00;5013350;28;20173;-48
2022/08/17 06:32:43;;;;;;;43.17;38.58;;;;;;;19.65;100.00;101071.88;5012567;28;20169;-46
2022/08/17 06:35:12;;;;;;;45.15;39.42;;;;;;;19.67;100.00;101064.47;5013551;28;20185;-46
2022/08/17 06:38:00;;;;;;;44.80;38.80;;;;;;;19.82;100.00;101076.13;5013695;28;20628;-46
2022/08/17 06:40:48;;;;;;;44.38;36.38;;;;;;;19.89;100.00;101080.13;5013639;28;20176;-46
2022/08/17 06:43:40;;;;;;;41.35;36.55;;;;;;;19.54;100.00;101067.22;5013236;28;20216;-47
2022/08/17 06:46:15;;;;;;;46.83;37.83;;;;;;;19.56;100.00;101073.41;5013105;28;20203;-49
2022/08/17 06:48:59;;;;;;;44.85;40.25;;;;;;;19.71;100.00;101072.31;5013360;28;20169;-49
2022/08/17 06:51:39;;;;;;;46.63;41.28;;;;;;;19.72;100.00;101078.63;5013098;28;20477;-45
2022/08/17 06:54:08;;;;;;;47.08;42.00;;;;;;;19.71;100.00;101079.63;5011883;28;20204;-45
2022/08/17 06:57:01;;;;;;;52.53;43.63;;;;;;;19.97;100.00;101072.28;5013017;28;20267;-46
2022/08/17 06:59:52;;;;;;;52.38;44.90;;;;;;;20.00;100.00;101082.91;5012960;28;20599;-46
2022/08/17 07:02:35;;;;;;;59.65;47.40;;;;;;;19.78;100.00;101083.63;5012809;28;20165;-48
2022/08/17 07:05:01;;;;;;;59.20;47.63;;;;;;;19.77;100.00;101092.78;5012785;28;20197;-46
2022/08/17 07:10:13;;;;;;;67.25;49.80;;;;;;;19.55;100.00;101090.72;5012753;28;20168;-45
2022/08/17 07:12:41;;;;;;;66.22;50.13;;;;;;;19.51;100.00;101094.63;5012879;28;20157;-46
2022/08/17 07:15:07;;;;;;;64.95;50.58;;;;;;;19.58;100.00;101093.19;5012626;28;20165;-46
2022/08/17 07:17:34;;;;;;;72.30;52.30;;;;;;;19.55;100.00;101094.28;5012830;28;20173;-47
2022/08/17 07:20:10;;;;;;;65.82;52.33;;;;;;;19.63;100.00;101104.59;5010948;28;20192;-46
2022/08/17 07:22:59;;;;;;;65.55;49.40;;;;;;;19.67;100.00;101118.84;5012647;28;20161;-45
2022/08/17 07:25:24;;;;;;;61.20;49.20;;;;;;;19.73;100.00;101118.44;5012414;28;20193;-48
2022/08/17 07:27:54;;;;;;;59.95;46.88;;;;;;;19.86;100.00;101110.28;5011973;28;20180;-46
2022/08/17 07:30:23;;;;;;;56.67;44.92;;;;;;;19.85;100.00;101111.22;5012521;28;20315;-46
2022/08/17 07:32:59;;;;;;;49.05;41.65;;;;;;;19.90;100.00;101128.09;5012358;28;20700;-48
2022/08/17 07:35:27;;;;;;;43.47;38.83;;;;;;;19.88;100.00;101113.75;5012057;28;20619;-44
2022/08/17 07:38:29;;;;;;;51.65;40.03;;;;;;;19.85;100.00;101114.81;5012332;28;20250;-47
2022/08/17 07:41:00;;;;;;;44.13;39.22;;;;;;;19.87;100.00;101121.00;5011971;28;20164;-45
2022/08/17 07:43:38;;;;;;;46.22;41.08;;;;;;;19.84;100.00;101126.69;5012091;28;20215;-46
2022/08/17 07:48:53;;;;;;;48.58;43.05;;;;;;;19.66;100.00;101126.13;5012022;28;20560;-47
2022/08/17 07:51:35;;;;;;;49.40;43.42;;;;;;;19.75;100.00;101130.06;5012116;28;20547;-45
2022/08/17 07:54:21;;;;;;;51.42;42.88;;;;;;;19.69;100.00;101136.81;5011995;28;20228;-45
2022/08/17 07:56:56;;;;;;;55.95;44.85;;;;;;;19.65;100.00;101121.66;5011927;28;20169;-44
2022/08/17 07:59:32;;;;;;;53.83;44.72;;;;;;;19.66;100.00;101128.84;5011460;28;20191;-45
2022/08/17 08:01:59;;;;;;;58.75;45.55;;;;;;;19.73;100.00;101129.31;5011992;28;20215;-45
2022/08/17 08:04:35;;;;;;;54.38;43.30;;;;;;;19.87;100.00;101128.31;5011438;28;20224;-44
2022/08/17 08:07:05;;;;;;;51.13;43.63;;;;;;;19.89;100.00;101127.22;5012521;28;20531;-45
2022/08/17 08:09:37;;;;;;;51.47;44.38;;;;;;;20.03;100.00;101128.03;5011465;28;20173;-46
2022/08/17 08:12:28;;;;;;;52.95;43.83;;;;;;;20.20;100.00;101126.81;5010555;28;20184;-45
2022/08/17 08:15:08;;;;;;;47.85;42.65;;;;;;;20.38;100.00;101131.75;5011472;28;20176;-46
2022/08/17 08:17:44;;;;;;;47.58;42.55;;;;;;;20.34;100.00;101138.41;5011219;28;20171;-48
2022/08/17 08:20:10;;;;;;;50.03;41.25;;;;;;;20.47;100.00;101130.22;5010683;28;20395;-45
2022/08/17 08:22:48;;;;;;;52.00;41.35;;;;;;;20.74;100.00;101121.81;5011064;28;20165;-45
2022/08/17 08:25:20;;;;;;;44.97;38.15;;;;;;;20.64;100.00;101128.97;5011165;28;20192;-45
2022/08/17 08:27:47;;;;;;;42.33;35.60;;;;;;;21.12;100.00;101133.47;5023185;28;20274;-47
2022/08/17 08:30:18;;;;;;;37.70;32.00;;;;;;;21.50;100.00;101135.09;5029513;28;20199;-46
2022/08/17 08:32:52;;;;;;;30.27;26.92;;;;;;;21.61;98.13;101135.09;5030364;28;20200;-45
2022/08/17 08:35:39;;;;;;;25.48;22.67;;;;;;;22.02;95.36;101137.19;5030954;28;20167;-45
2022/08/17 08:38:23;;;;;;;28.05;24.27;;;;;;;22.16;92.77;101130.59;5030495;28;20277;-46
2022/08/17 08:41:18;;;;;;;27.02;24.17;;;;;;;22.02;91.33;101133.63;5030531;28;20163;-46
2022/08/17 08:44:17;;;;;;;23.77;21.50;;;;;;;22.37;90.68;101138.91;5030228;28;20286;-46
2022/08/17 08:47:16;;;;;;;28.35;25.33;;;;;;;22.27;90.45;101137.06;5030595;28;20168;-45
2022/08/17 08:49:55;;;;;;;25.50;22.80;;;;;;;22.17;91.34;101137.81;5030347;28;20841;-44
2022/08/17 08:53:04;;;;;;;26.52;23.73;;;;;;;22.04;90.78;101149.84;5030573;28;20168;-45
2022/08/17 08:55:47;;;;;;;24.55;21.23;;;;;;;22.23;90.87;101152.81;5019150;28;20215;-50
2022/08/17 08:58:18;;;;;;;25.48;22.75;;;;;;;22.60;89.61;101153.34;5030593;28;20164;-44
2022/08/17 09:00:49;;;;;;;25.90;21.38;;;;;;;22.83;88.48;101150.56;5030210;28;20180;-45
2022/08/17 09:03:18;;;;;;;25.67;21.25;;;;;;;23.18;85.78;101147.56;5030273;28;20215;-46
2022/08/17 09:06:03;;;;;;;24.67;21.10;;;;;;;23.07;85.57;101160.41;5030147;28;20670;-47
2022/08/17 09:08:31;;;;;;;23.58;21.23;;;;;;;22.62;87.10;101151.38;5030395;28;20623;-48
2022/08/17 09:11:27;;;;;;;22.50;19.80;;;;;;;22.59;87.49;101157.09;5030328;28;20210;-45
2022/08/17 09:14:17;;;;;;;25.25;21.95;;;;;;;22.71;87.93;101160.66;5030175;28;20197;-45
2022/08/17 09:17:02;;;;;;;19.13;17.35;;;;;;;22.92;87.00;101157.97;5029676;28;20194;-45
2022/08/17 09:19:34;;;;;;;23.98;21.05;;;;;;;22.59;86.63;101161.72;5029751;28;20516;-47
2022/08/17 09:22:22;;;;;;;23.90;21.58;;;;;;;22.52;87.80;101158.63;5030400;28;20179;-46
2022/08/17 09:25:02;;;;;;;20.45;18.27;;;;;;;22.88;87.81;101164.69;5029766;28;20218;-45
2022/08/17 09:28:02;;;;;;;23.90;21.60;;;;;;;22.76;85.61;101171.19;5030010;28;20168;-43
2022/08/17 09:30:40;;;;;;;19.02;16.98;;;;;;;23.17;85.64;101164.97;5028154;28;20338;-44
2022/08/17 09:33:08;;;;;;;23.00;19.05;;;;;;;23.06;84.16;101170.50;5062035;28;20214;-46
2022/08/17 09:35:52;;;;;;;22.90;20.40;;;;;;;23.48;82.71;101164.16;5029561;28;20160;-49
2022/08/17 09:38:33;;;;;;;20.00;18.02;;;;;;;23.37;82.97;101165.97;5030144;28;20179;-44
2022/08/17 09:41:13;;;;;;;25.23;19.45;;;;;;;23.37;82.25;101152.28;5029994;28;20217;-45
2022/08/17 09:43:47;;;;;;;19.45;17.35;;;;;;;23.32;82.52;101156.44;5029638;28;20677;-45
2022/08/17 09:46:23;;;;;;;18.23;16.45;;;;;;;23.97;81.10;101157.13;5030044;28;20206;-45
2022/08/17 09:48:58;;;;;;;20.23;18.15;;;;;;;23.81;79.82;101153.03;5029436;28;20179;-44
2022/08/17 09:51:35;;;;;;;19.92;17.77;;;;;;;23.66;80.49;101157.09;5028635;28;20194;-47
2022/08/17 09:54:01;;;;;;;16.65;14.90;;;;;;;24.24;79.07;101157.34;5029725;28;20202;-46
2022/08/17 09:56:35;;;;;;;18.00;16.23;;;;;;;23.47;78.11;101149.63;5029764;28;20168;-45
2022/08/17 09:59:23;;;;;;;21.38;18.48;;;;;;;23.56;82.17;101157.03;5029674;28;20172;-45
2022/08/17 10:02:41;;;;;;;22.65;19.33;;;;;;;23.32;83.10;101153.72;5029720;28;20179;-45
2022/08/17 10:05:14;;;;;;;18.50;16.33;;;;;;;23.74;81.73;101154.53;5007333;28;20195;-46
2022/08/17 10:07:56;;;;;;;23.90;21.40;;;;;;;23.31;82.23;101150.13;5008389;28;20165;-44
2022/08/17 10:10:32;;;;;;;25.52;19.98;;;;;;;23.18;84.35;101133.06;5020122;28;20666;-44
2022/08/17 10:13:09;;;;;;;24.60;22.30;;;;;;;22.80;86.34;101145.34;5033104;28;20214;-43
2022/08/17 10:15:45;;;;;;;25.67;23.17;;;;;;;22.61;88.25;101149.66;5033074;28;20207;-41
2022/08/17 10:18:26;;;;;;;25.63;23.20;;;;;;;22.54;89.12;101147.53;5033128;28;20171;-43
2022/08/17 10:26:39;;;;;;;25.27;22.67;;;;;;;22.70;89.04;101158.06;5032931;28;20164;-41
2022/08/17 10:29:29;;;;;;;25.23;22.67;;;;;;;22.58;89.80;101155.34;5032487;28;20317;-43
2022/08/17 10:32:02;;;;;;;25.15;22.58;;;;;;;22.72;88.92;101151.47;5032885;28;20174;-42
2022/08/17 10:35:01;;;;;;;25.38;22.80;;;;;;;22.63;88.56;101147.66;5032528;28;20198;-43
2022/08/17 10:37:45;;;;;;;26.85;24.25;;;;;;;22.60;89.46;101155.22;5032797;28;20769;-43
2022/08/17 10:40:35;;;;;;;26.83;24.13;;;;;;;22.70;89.75;101148.00;5032429;28;20482;-43
2022/08/17 10:43:09;;;;;;;27.50;24.77;;;;;;;22.40;90.46;101151.44;5032520;28;20582;-43
2022/08/17 10:46:01;;;;;;;29.30;25.48;;;;;;;22.08;92.17;101154.91;5032189;28;20246;-43
2022/08/17 10:48:35;;;;;;;27.55;24.85;;;;;;;22.28;91.93;101150.59;5032475;28;20631;-43
2022/08/17 10:51:04;;;;;;;27.90;25.10;;;;;;;22.32;91.41;101148.47;5032091;28;20657;-43
2022/08/17 10:53:30;;;;;;;27.05;24.33;;;;;;;22.28;91.40;101150.59;5032253;28;20276;-43
2022/08/17 10:56:10;;;;;;;27.02;24.48;;;;;;;22.17;92.05;101151.47;5031916;28;20626;-45
2022/08/17 10:58:54;;;;;;;27.52;24.55;;;;;;;22.14;92.18;101139.91;5032057;28;20171;-45
2022/08/17 11:01:31;;;;;;;26.27;23.83;;;;;;;22.02;92.12;101144.53;5032077;28;20253;-47
2022/08/17 11:04:03;;;;;;;25.67;23.08;;;;;;;22.35;92.07;101142.78;5032032;28;20215;-45
2022/08/17 11:06:37;;;;;;;27.35;24.40;;;;;;;22.28;91.90;101138.78;5031911;28;20167;-46
2022/08/17 11:09:25;;;;;;;27.50;24.73;;;;;;;22.02;92.15;101148.13;5031423;28;20956;-45
2022/08/17 11:12:05;;;;;;;28.92;26.10;;;;;;;21.97;92.51;101150.38;5031633;28;20195;-46
2022/08/17 11:14:49;;;;;;;30.42;27.15;;;;;;;21.96;93.32;101147.75;5031925;28;20187;-45
2022/08/17 11:18:00;;;;;;;30.80;27.67;;;;;;;21.87;94.33;101148.50;5031590;28;20188;-46
2022/08/17 11:20:38;;;;;;;31.00;27.05;;;;;;;21.88;94.13;101137.44;5031228;28;20194;-43
2022/08/17 11:23:03;;;;;;;31.10;27.88;;;;;;;21.91;93.88;101139.06;5063748;28;20195;-46
2022/08/17 11:25:39;;;;;;;30.33;26.95;;;;;;;22.03;93.96;101135.34;5031898;28;20553;-49
2022/08/17 11:28:14;;;;;;;30.15;27.02;;;;;;;22.03;93.96;101135.34;5031623;28;20313;-44
2022/08/17 11:30:45;;;;;;;30.35;27.25;;;;;;;21.98;94.48;101132.97;5030786;28;20199;-46
2022/08/17 11:33:32;;;;;;;31.52;28.33;;;;;;;22.04;94.72;101136.19;5031111;28;20701;-49
2022/08/17 11:36:13;;;;;;;31.70;28.25;;;;;;;22.02;94.77;101130.88;5031323;28;20549;-45
2022/08/17 11:38:46;;;;;;;34.45;28.92;;;;;;;22.14;94.33;101138.03;5031555;28;20274;-44
2022/08/17 11:41:26;;;;;;;32.75;29.25;;;;;;;21.96;94.99;101134.97;5031345;28;20175;-45
2022/08/17 11:44:00;;;;;;;33.40;29.92;;;;;;;21.83;95.77;101136.97;5031106;28;20742;-50
2022/08/17 11:52:47;;;;;;;33.58;29.65;;;;;;;21.85;97.38;101139.56;5011179;28;20220;-44
2022/08/17 11:55:33;;;;;;;33.72;29.85;;;;;;;21.84;97.00;101140.53;5010386;28;20164;-43
2022/08/17 11:58:25;;;;;;;28.92;25.98;;;;;;;21.90;95.83;101143.66;5011254;28;20187;-45
2022/08/17 12:00:55;;;;;;;31.98;28.55;;;;;;;21.90;95.66;101153.69;5011283;28;20203;-44
2022/08/17 12:03:33;;;;;;;29.70;26.55;;;;;;;22.01;95.34;101146.38;5011497;28;20204;-44
2022/08/17 12:06:29;;;;;;;30.75;27.50;;;;;;;21.98;95.41;101143.03;5009958;28;20203;-46